Time;durP1;ratioP1;P1;durP2;ratioP2;P2;SDS_P1;SDS_P2;PMS_P1;PMS_P2;Temp;Humidity;BMP_temperature;BMP_pressure;BME280_temperature;BME280_humidity;BME280_pressure;Samples;Min_cycle;Max_cycle;Signal;HPM_P1;HPM_P2
2022/06/29 00:00:15;;;;;;;6.63;2.47;;;;;;;;;;5059298;28;20762;-82
2022/06/29 00:02:40;;;;;;;5.65;2.80;;;;;;;;;;5059058;28;20033;-81
2022/06/29 00:05:07;;;;;;;3.92;2.28;;;;;;;;;;5041125;28;20041;-82
2022/06/29 00:07:32;;;;;;;8.75;2.70;;;;;;;;;;5059735;28;20064;-82
2022/06/29 00:09:58;;;;;;;7.40;2.85;;;;;;;;;;5058346;28;20098;-82
2022/06/29 00:12:24;;;;;;;7.38;2.55;;;;;;;;;;5041102;28;20053;-82
2022/06/29 00:14:50;;;;;;;4.05;2.70;;;;;;;;;;5058669;28;20441;-80
2022/06/29 00:17:16;;;;;;;6.22;2.80;;;;;;;;;;5058539;28;20062;-81
2022/06/29 00:19:41;;;;;;;4.80;2.60;;;;;;;;;;5040708;28;20504;-81
2022/06/29 00:22:08;;;;;;;4.75;2.40;;;;;;;;;;5058356;28;20037;-82
2022/06/29 00:24:35;;;;;;;5.55;2.30;;;;;;;;;;5040922;28;20502;-82
2022/06/29 00:27:01;;;;;;;3.65;2.35;;;;;;;;;;5024351;28;20048;-82
2022/06/29 00:29:28;;;;;;;6.18;2.42;;;;;;;;;;5040978;28;20515;-82
2022/06/29 00:31:54;;;;;;;6.13;2.50;;;;;;;;;;5040992;28;20033;-82
2022/06/29 00:34:19;;;;;;;7.70;2.50;;;;;;;;;;5058143;28;20036;-81
2022/06/29 00:36:45;;;;;;;4.47;2.20;;;;;;;;;;5058860;28;20032;-82
2022/06/29 00:39:11;;;;;;;6.28;2.70;;;;;;;;;;5057561;28;20043;-82
2022/06/29 00:41:43;;;;;;;6.72;2.30;;;;;;;;;;5059145;28;20056;-83
2022/06/29 00:44:09;;;;;;;5.32;2.92;;;;;;;;;;5057326;28;20048;-83
2022/06/29 00:46:40;;;;;;;5.35;2.45;;;;;;;;;;5057398;28;20021;-83
2022/06/29 00:49:05;;;;;;;4.60;2.50;;;;;;;;;;5057217;28;20116;-83
2022/06/29 00:51:34;;;;;;;6.40;2.70;;;;;;;;;;5057286;28;20096;-83
2022/06/29 00:54:00;;;;;;;5.95;2.28;;;;;;;;;;5056355;28;20512;-83
2022/06/29 00:56:27;;;;;;;5.65;2.45;;;;;;;;;;5057131;28;20107;-83
2022/06/29 00:58:55;;;;;;;6.53;2.53;;;;;;;;;;5039209;28;20115;-83
2022/06/29 01:01:21;;;;;;;6.85;2.75;;;;;;;;;;5057017;28;20040;-83
2022/06/29 01:03:46;;;;;;;8.60;2.30;;;;;;;;;;5056989;28;20037;-83
2022/06/29 01:06:12;;;;;;;4.80;2.45;;;;;;;;;;5056484;28;20064;-82
2022/06/29 01:08:38;;;;;;;5.25;2.55;;;;;;;;;;5039240;28;20060;-83
2022/06/29 01:11:03;;;;;;;7.60;2.40;;;;;;;;;;5056507;28;20116;-83
2022/06/29 01:13:29;;;;;;;5.00;2.60;;;;;;;;;;5039002;28;20091;-83
2022/06/29 01:15:54;;;;;;;7.40;2.65;;;;;;;;;;5056790;28;20048;-82
2022/06/29 01:18:20;;;;;;;7.53;2.45;;;;;;;;;;5056626;28;20040;-83
2022/06/29 01:20:45;;;;;;;9.40;2.50;;;;;;;;;;5056444;28;20200;-83
2022/06/29 01:23:11;;;;;;;4.85;2.40;;;;;;;;;;5056692;28;20096;-83
2022/06/29 01:25:36;;;;;;;5.57;2.40;;;;;;;;;;5039011;28;20037;-84
2022/06/29 01:28:02;;;;;;;7.13;2.83;;;;;;;;;;5056120;28;20032;-83
2022/06/29 01:30:27;;;;;;;5.38;2.90;;;;;;;;;;5056457;28;20702;-83
2022/06/29 01:32:53;;;;;;;7.15;2.72;;;;;;;;;;5038513;28;20440;-82
2022/06/29 01:35:22;;;;;;;13.45;3.00;;;;;;;;;;5056336;28;20033;-83
2022/06/29 01:37:48;;;;;;;7.78;3.10;;;;;;;;;;5056302;28;20408;-83
2022/06/29 01:40:14;;;;;;;4.90;2.90;;;;;;;;;;5038076;28;20028;-83
2022/06/29 01:42:39;;;;;;;6.10;3.10;;;;;;;;;;5038653;28;20033;-83
2022/06/29 01:45:06;;;;;;;8.10;3.15;;;;;;;;;;5055291;28;20033;-83
2022/06/29 01:47:31;;;;;;;5.68;2.92;;;;;;;;;;5038124;28;20036;-83
2022/06/29 01:49:57;;;;;;;7.53;2.90;;;;;;;;;;5056045;28;20401;-85
2022/06/29 01:52:22;;;;;;;6.80;3.45;;;;;;;;;;5055905;28;20033;-84
2022/06/29 01:54:48;;;;;;;4.72;3.00;;;;;;;;;;5055729;28;20045;-84
2022/06/29 01:57:13;;;;;;;6.10;3.17;;;;;;;;;;5055963;28;20021;-84
2022/06/29 01:59:39;;;;;;;6.90;3.60;;;;;;;;;;5056151;28;20040;-84
2022/06/29 02:02:04;;;;;;;5.57;2.65;;;;;;;;;;5037588;28;20039;-84
2022/06/29 02:04:30;;;;;;;6.20;2.72;;;;;;;;;;5055579;28;20037;-84
2022/06/29 02:06:55;;;;;;;5.50;3.20;;;;;;;;;;5056200;28;20435;-83
2022/06/29 02:09:21;;;;;;;8.52;2.80;;;;;;;;;;5038353;28;20071;-83
2022/06/29 02:11:46;;;;;;;6.38;2.90;;;;;;;;;;5055900;28;20025;-84
2022/06/29 02:14:13;;;;;;;6.38;2.92;;;;;;;;;;5055290;28;20071;-83
2022/06/29 02:16:39;;;;;;;6.32;2.80;;;;;;;;;;5055610;28;20044;-83
2022/06/29 02:19:04;;;;;;;10.18;3.38;;;;;;;;;;5055234;28;20075;-83
2022/06/29 02:21:30;;;;;;;6.85;3.25;;;;;;;;;;5056083;28;20025;-83
2022/06/29 02:23:56;;;;;;;4.70;3.10;;;;;;;;;;5037561;28;20176;-82
2022/06/29 02:26:21;;;;;;;6.97;3.53;;;;;;;;;;5055678;28;20041;-83
2022/06/29 02:28:47;;;;;;;6.13;2.97;;;;;;;;;;5055718;28;20037;-84
2022/06/29 02:36:41;;;;;;;5.03;2.63;;;;;;;;;;5055387;28;20468;-83
2022/06/29 02:39:06;;;;;;;5.05;2.70;;;;;;;;;;5055209;28;20021;-83
2022/06/29 02:41:32;;;;;;;5.78;2.63;;;;;;;;;;5055217;28;20029;-83
2022/06/29 02:43:58;;;;;;;5.63;2.60;;;;;;;;;;5054668;28;20044;-82
2022/06/29 02:46:23;;;;;;;9.60;2.60;;;;;;;;;;5055323;28;20029;-83
2022/06/29 02:48:49;;;;;;;4.32;2.60;;;;;;;;;;5037748;28;20464;-83
2022/06/29 02:51:14;;;;;;;8.23;2.90;;;;;;;;;;5055216;28;20112;-83
2022/06/29 02:53:40;;;;;;;4.50;2.55;;;;;;;;;;5055209;28;20032;-83
2022/06/29 02:56:06;;;;;;;5.90;2.92;;;;;;;;;;5055056;28;20048;-84
2022/06/29 02:58:31;;;;;;;6.40;3.10;;;;;;;;;;5054969;28;20477;-83
2022/06/29 03:00:57;;;;;;;6.80;3.10;;;;;;;;;;5054266;28;20037;-83
2022/06/29 03:03:22;;;;;;;6.65;3.00;;;;;;;;;;5057759;28;20666;-83
2022/06/29 03:05:48;;;;;;;5.13;3.45;;;;;;;;;;5041486;28;20048;-83
2022/06/29 03:08:13;;;;;;;4.90;3.00;;;;;;;;;;5041431;28;20119;-82
2022/06/29 03:10:39;;;;;;;10.02;3.70;;;;;;;;;;5059102;28;20468;-83
2022/06/29 03:13:04;;;;;;;6.07;3.30;;;;;;;;;;5059099;28;20033;-84
2022/06/29 03:15:30;;;;;;;7.15;3.50;;;;;;;;;;5058928;28;20048;-83
2022/06/29 03:17:55;;;;;;;4.68;3.10;;;;;;;;;;5058349;28;20033;-84
2022/06/29 03:20:22;;;;;;;6.28;2.92;;;;;;;;;;5058937;28;20576;-83
2022/06/29 03:22:48;;;;;;;7.35;3.03;;;;;;;;;;5024175;28;20029;-84
2022/06/29 03:25:14;;;;;;;5.63;2.90;;;;;;;;;;5040751;28;20587;-84
2022/06/29 03:27:40;;;;;;;5.75;3.13;;;;;;;;;;5058769;28;20052;-83
2022/06/29 03:30:06;;;;;;;9.25;2.63;;;;;;;;;;5058520;28;20048;-84
2022/06/29 03:32:32;;;;;;;4.72;2.80;;;;;;;;;;5040824;28;20127;-83
2022/06/29 03:34:57;;;;;;;6.05;2.58;;;;;;;;;;5057848;28;20075;-83
2022/06/29 03:37:23;;;;;;;4.85;2.83;;;;;;;;;;5041042;28;20037;-84
2022/06/29 03:39:49;;;;;;;7.00;2.80;;;;;;;;;;5040789;28;20036;-83
2022/06/29 03:42:14;;;;;;;6.97;2.90;;;;;;;;;;5058544;28;20052;-84
2022/06/29 03:44:40;;;;;;;4.47;3.08;;;;;;;;;;5040372;28;20135;-84
2022/06/29 03:47:07;;;;;;;5.85;3.20;;;;;;;;;;5040527;28;20067;-84
2022/06/29 03:49:35;;;;;;;7.00;3.30;;;;;;;;;;5058356;28;20440;-84
2022/06/29 03:52:01;;;;;;;4.75;3.25;;;;;;;;;;5057601;28;20091;-84
2022/06/29 03:54:27;;;;;;;5.10;3.30;;;;;;;;;;5057961;28;20033;-84
2022/06/29 03:56:52;;;;;;;7.45;3.33;;;;;;;;;;5057979;28;20040;-84
2022/06/29 03:59:18;;;;;;;5.03;3.10;;;;;;;;;;5057663;28;20567;-83
2022/06/29 04:01:43;;;;;;;5.47;3.35;;;;;;;;;;5057680;28;20481;-84
2022/06/29 04:04:08;;;;;;;6.13;3.53;;;;;;;;;;5057493;28;20040;-84
2022/06/29 04:06:34;;;;;;;6.38;3.95;;;;;;;;;;5058163;28;20064;-83
2022/06/29 04:08:59;;;;;;;6.05;3.50;;;;;;;;;;5057450;28;20072;-84
2022/06/29 04:14:09;;;;;;;7.07;3.55;;;;;;;;;;5055807;28;20044;-84
2022/06/29 04:16:34;;;;;;;8.20;3.38;;;;;;;;;;5058145;28;20029;-83
2022/06/29 04:19:00;;;;;;;5.45;3.30;;;;;;;;;;5057912;28;20459;-84
2022/06/29 04:21:26;;;;;;;8.90;3.60;;;;;;;;;;5040147;28;20061;-84
2022/06/29 04:23:52;;;;;;;6.22;3.20;;;;;;;;;;5057462;28;20032;-85
2022/06/29 04:26:18;;;;;;;4.80;3.33;;;;;;;;;;5057582;28;20028;-85
2022/06/29 04:28:44;;;;;;;10.75;3.28;;;;;;;;;;5057729;28;20033;-84
2022/06/29 04:31:09;;;;;;;10.18;3.53;;;;;;;;;;5057196;28;20071;-85
2022/06/29 04:33:35;;;;;;;7.40;3.83;;;;;;;;;;5057705;28;20036;-85
2022/06/29 04:36:01;;;;;;;8.02;3.88;;;;;;;;;;5039502;28;20025;-85
2022/06/29 04:38:27;;;;;;;5.93;3.50;;;;;;;;;;5057463;28;20072;-84
2022/06/29 04:40:52;;;;;;;8.23;3.42;;;;;;;;;;5057171;28;20440;-85
2022/06/29 04:43:18;;;;;;;5.35;3.17;;;;;;;;;;5039334;28;20060;-84
2022/06/29 04:48:27;;;;;;;7.10;3.47;;;;;;;;;;5057362;28;20055;-84
2022/06/29 04:50:52;;;;;;;5.20;3.60;;;;;;;;;;5056960;28;20473;-84
2022/06/29 04:53:18;;;;;;;7.18;4.05;;;;;;;;;;5057115;28;20024;-84
2022/06/29 04:55:43;;;;;;;11.90;4.07;;;;;;;;;;5057086;28;20033;-84
2022/06/29 04:58:09;;;;;;;6.47;3.67;;;;;;;;;;5057170;28;20112;-84
2022/06/29 05:00:34;;;;;;;7.22;3.70;;;;;;;;;;5056995;28;20397;-84
2022/06/29 05:03:00;;;;;;;10.45;3.88;;;;;;;;;;5057148;28;20073;-84
2022/06/29 05:05:25;;;;;;;8.98;3.70;;;;;;;;;;5056943;28;20033;-84
2022/06/29 05:07:51;;;;;;;9.05;3.72;;;;;;;;;;5056594;28;20037;-85
2022/06/29 05:10:16;;;;;;;5.72;3.40;;;;;;;;;;5039069;28;20469;-85
2022/06/29 05:12:42;;;;;;;8.48;3.42;;;;;;;;;;5057101;28;20677;-85
2022/06/29 05:15:08;;;;;;;8.75;3.65;;;;;;;;;;5056902;28;20037;-84
2022/06/29 05:17:37;;;;;;;7.03;3.30;;;;;;;;;;5057088;28;20032;-84
2022/06/29 05:20:05;;;;;;;6.95;3.30;;;;;;;;;;5056713;28;20063;-84
2022/06/29 05:22:30;;;;;;;5.90;3.20;;;;;;;;;;5038741;28;20037;-84
2022/06/29 05:24:56;;;;;;;7.97;3.35;;;;;;;;;;5055609;28;20098;-84
2022/06/29 05:27:21;;;;;;;7.57;3.45;;;;;;;;;;5056602;28;20036;-83
2022/06/29 05:29:47;;;;;;;6.30;3.22;;;;;;;;;;5038459;28;20444;-84
2022/06/29 05:32:12;;;;;;;6.97;3.08;;;;;;;;;;5058377;28;20025;-84
2022/06/29 05:34:38;;;;;;;7.72;3.58;;;;;;;;;;5056326;28;20036;-84
2022/06/29 05:37:03;;;;;;;9.00;3.80;;;;;;;;;;5021505;28;20040;-84
2022/06/29 05:39:29;;;;;;;8.82;3.72;;;;;;;;;;5055714;28;20374;-84
2022/06/29 05:41:54;;;;;;;7.72;3.92;;;;;;;;;;5055159;28;20115;-84
2022/06/29 05:44:20;;;;;;;7.10;3.90;;;;;;;;;;5056470;28;20056;-83
2022/06/29 05:46:45;;;;;;;5.53;3.33;;;;;;;;;;5055955;28;20193;-84
2022/06/29 05:49:11;;;;;;;6.10;3.60;;;;;;;;;;5055390;28;20037;-84
2022/06/29 05:51:36;;;;;;;6.30;3.60;;;;;;;;;;5056566;28;20040;-83
2022/06/29 05:54:02;;;;;;;5.82;3.58;;;;;;;;;;5056365;28;20036;-84
2022/06/29 05:56:27;;;;;;;7.43;3.47;;;;;;;;;;5056783;28;20037;-84
2022/06/29 05:58:53;;;;;;;7.78;3.67;;;;;;;;;;5055814;28;20040;-83
2022/06/29 06:01:18;;;;;;;6.85;3.88;;;;;;;;;;5055750;28;20039;-84
2022/06/29 06:03:44;;;;;;;9.13;3.65;;;;;;;;;;5056688;28;20396;-85
2022/06/29 06:06:09;;;;;;;6.60;3.65;;;;;;;;;;5055923;28;20045;-84
2022/06/29 06:08:35;;;;;;;5.72;3.58;;;;;;;;;;5056399;28;20037;-85
2022/06/29 06:11:01;;;;;;;5.68;3.40;;;;;;;;;;5055844;28;20504;-86
2022/06/29 06:13:27;;;;;;;7.85;3.60;;;;;;;;;;5056540;28;20025;-85
2022/06/29 06:15:53;;;;;;;6.85;3.17;;;;;;;;;;5055469;28;20098;-85
2022/06/29 06:18:18;;;;;;;6.10;3.40;;;;;;;;;;5056162;28;20033;-85
2022/06/29 06:20:44;;;;;;;5.60;3.22;;;;;;;;;;5038062;28;20037;-84
2022/06/29 06:23:10;;;;;;;5.57;3.70;;;;;;;;;;5037733;28;20037;-85
2022/06/29 06:25:35;;;;;;;7.25;3.55;;;;;;;;;;5055742;28;20037;-86
2022/06/29 06:28:01;;;;;;;5.75;3.60;;;;;;;;;;5056892;28;20175;-86
2022/06/29 06:30:27;;;;;;;6.38;3.65;;;;;;;;;;5022616;28;20021;-85
2022/06/29 06:32:53;;;;;;;6.10;3.47;;;;;;;;;;5056004;28;20028;-85
2022/06/29 06:35:19;;;;;;;11.05;3.90;;;;;;;;;;5038215;28;20244;-85
2022/06/29 06:37:46;;;;;;;6.55;3.38;;;;;;;;;;5039791;28;20033;-87
2022/06/29 06:42:56;;;;;;;5.28;3.42;;;;;;;;;;5058107;28;20444;-87
2022/06/29 06:45:22;;;;;;;7.13;3.42;;;;;;;;;;5039626;28;20033;-87
2022/06/29 06:47:47;;;;;;;4.35;3.20;;;;;;;;;;5040251;28;20029;-87
2022/06/29 06:50:13;;;;;;;7.55;3.80;;;;;;;;;;5057791;28;20036;-87
2022/06/29 06:52:38;;;;;;;6.68;3.35;;;;;;;;;;5050696;28;20040;-85
2022/06/29 06:55:04;;;;;;;10.13;4.15;;;;;;;;;;5068885;28;20090;-86
2022/06/29 06:57:30;;;;;;;7.90;3.30;;;;;;;;;;5055208;28;20505;-86
2022/06/29 08:23:23;;;;;;;10.02;5.57;;;;;;;;;;5580472;23;20041;-88
2022/06/29 08:25:56;;;;;;;7.88;5.50;;;;;;;;;;5019733;28;20025;-88
2022/06/29 08:28:25;;;;;;;10.50;5.82;;;;;;;;;;5019207;28;20042;-88
2022/06/29 08:34:32;;;;;;;8.00;5.78;;;;;;;;;;5021184;28;20087;-88
2022/06/29 08:36:59;;;;;;;12.25;6.30;;;;;;;;;;5021741;28;20520;-88
2022/06/29 08:39:51;;;;;;;8.80;6.00;;;;;;;;;;5021450;28;20120;-86
2022/06/29 08:42:21;;;;;;;8.05;5.80;;;;;;;;;;5018833;28;20491;-87
2022/06/29 08:44:47;;;;;;;10.40;6.53;;;;;;;;;;5021473;28;20526;-88
2022/06/29 08:47:16;;;;;;;9.13;5.55;;;;;;;;;;5020183;28;20024;-87
2022/06/29 08:49:44;;;;;;;8.52;5.55;;;;;;;;;;5020788;28;20034;-88
2022/06/29 08:52:10;;;;;;;9.85;5.80;;;;;;;;;;5018021;28;20445;-87
2022/06/29 08:54:40;;;;;;;8.52;5.80;;;;;;;;;;5018408;28;20033;-87
2022/06/29 08:57:06;;;;;;;11.02;5.70;;;;;;;;;;5018490;28;20037;-87
2022/06/29 08:59:35;;;;;;;7.55;5.63;;;;;;;;;;5018416;28;20065;-87
2022/06/29 09:02:01;;;;;;;9.82;5.70;;;;;;;;;;5018990;28;20044;-87
2022/06/29 09:04:27;;;;;;;9.18;5.78;;;;;;;;;;5019846;28;20041;-87
2022/06/29 09:06:54;;;;;;;10.30;5.55;;;;;;;;;;5019180;28;20045;-87
2022/06/29 09:09:20;;;;;;;8.50;5.97;;;;;;;;;;5018772;28;20486;-87
2022/06/29 09:11:48;;;;;;;8.50;5.10;;;;;;;;;;5019860;28;20079;-86
2022/06/29 09:14:18;;;;;;;6.82;5.20;;;;;;;;;;5019157;28;20041;-87
2022/06/29 09:16:51;;;;;;;7.82;5.68;;;;;;;;;;5019322;28;20063;-87
2022/06/29 09:19:17;;;;;;;8.25;6.20;;;;;;;;;;5019219;28;20026;-87
2022/06/29 09:21:50;;;;;;;8.60;5.65;;;;;;;;;;5018911;28;20033;-87
2022/06/29 09:24:21;;;;;;;10.23;6.13;;;;;;;;;;5018146;28;20041;-86
2022/06/29 09:26:54;;;;;;;10.23;5.20;;;;;;;;;;5019519;28;20045;-87
2022/06/29 09:29:23;;;;;;;8.88;5.38;;;;;;;;;;5019181;28;20033;-87
2022/06/29 09:32:09;;;;;;;6.88;5.30;;;;;;;;;;5019226;28;20494;-87
2022/06/29 09:34:37;;;;;;;11.68;5.80;;;;;;;;;;5019693;28;20513;-87
2022/06/29 09:37:05;;;;;;;8.93;6.55;;;;;;;;;;5019105;28;20022;-88
2022/06/29 09:39:33;;;;;;;9.27;6.25;;;;;;;;;;5019100;28;20030;-87
2022/06/29 09:41:59;;;;;;;6.97;5.85;;;;;;;;;;5017788;28;20513;-87
2022/06/29 09:44:25;;;;;;;8.98;6.43;;;;;;;;;;5016755;28;20029;-87
2022/06/29 09:46:55;;;;;;;8.70;6.03;;;;;;;;;;5018127;28;20030;-87
2022/06/29 09:49:27;;;;;;;8.27;5.72;;;;;;;;;;5017369;28;20062;-86
2022/06/29 09:51:57;;;;;;;9.75;6.05;;;;;;;;;;5018144;28;20041;-87
2022/06/29 09:54:31;;;;;;;12.25;6.15;;;;;;;;;;5017019;28;20045;-88
2022/06/29 09:56:59;;;;;;;11.52;6.25;;;;;;;;;;5020131;28;20037;-87
2022/06/29 10:02:37;;;;;;;7.85;6.40;;;;;;;;;;4941584;29;20051;-88
2022/06/29 10:09:03;;;;;;;11.15;6.72;;;;;;;;;;4942581;29;20047;-86
2022/06/29 10:14:36;;;;;;;;;;;;;;;;;;5020872;28;20037;-86
2022/06/29 10:17:26;;;;;;;9.13;6.65;;;;;;;;;;5020783;28;19956;-88
2022/06/29 10:20:12;;;;;;;7.45;6.13;;;;;;;;;;5021600;28;20053;-89
2022/06/29 10:22:39;;;;;;;9.70;6.63;;;;;;;;;;5022743;28;20038;-88
2022/06/29 10:25:07;;;;;;;8.38;6.50;;;;;;;;;;5022540;28;20037;-88
2022/06/29 10:27:33;;;;;;;8.75;6.88;;;;;;;;;;5020452;28;20057;-88
2022/06/29 10:30:17;;;;;;;8.80;6.15;;;;;;;;;;5020628;28;20502;-88
2022/06/29 10:32:42;;;;;;;9.55;6.32;;;;;;;;;;5021565;28;20392;-88
2022/06/29 10:35:08;;;;;;;9.43;6.38;;;;;;;;;;5020893;28;20037;-88
2022/06/29 10:37:50;;;;;;;8.60;6.18;;;;;;;;;;5021256;28;20065;-86
2022/06/29 10:40:24;;;;;;;9.00;6.32;;;;;;;;;;5025252;28;20056;-86
2022/06/29 10:43:09;;;;;;;7.97;6.75;;;;;;;;;;5023936;28;20042;-85
2022/06/29 10:45:41;;;;;;;8.27;6.13;;;;;;;;;;5022488;28;20042;-86
2022/06/29 10:48:07;;;;;;;8.48;6.22;;;;;;;;;;5004362;28;20037;-86
2022/06/29 10:50:38;;;;;;;8.88;5.95;;;;;;;;;;5021873;28;20029;-86
2022/06/29 10:53:05;;;;;;;7.03;5.22;;;;;;;;;;5020603;28;20044;-86
2022/06/29 10:55:33;;;;;;;11.45;6.30;;;;;;;;;;5021043;28;20030;-86
2022/06/29 10:57:59;;;;;;;8.85;6.15;;;;;;;;;;5020809;28;20093;-86
2022/06/29 11:00:27;;;;;;;7.50;6.30;;;;;;;;;;5020633;28;20057;-84
2022/06/29 11:02:53;;;;;;;8.70;6.15;;;;;;;;;;5021360;28;20445;-84
2022/06/29 11:05:19;;;;;;;7.47;5.93;;;;;;;;;;5020604;28;20494;-86
2022/06/29 11:13:28;;;;;;;6.55;5.85;;;;;;;;;;5021967;28;20034;-86
2022/06/29 11:15:56;;;;;;;5.95;4.80;;;;;;;;;;5021158;28;20410;-87
2022/06/29 11:18:29;;;;;;;7.38;5.72;;;;;;;;;;5021421;28;20040;-86
2022/06/29 11:21:02;;;;;;;8.80;6.37;;;;;;;;;;5019638;28;20109;-86
2022/06/29 11:23:29;;;;;;;10.18;5.97;;;;;;;;;;5021123;28;20311;-85
2022/06/29 11:25:56;;;;;;;8.68;6.57;;;;;;;;;;5024466;28;20090;-85
2022/06/29 11:28:29;;;;;;;7.53;6.10;;;;;;;;;;5024832;28;20037;-85
2022/06/29 11:30:58;;;;;;;;;;;;;;;;;;5025625;28;20030;-87
2022/06/29 11:33:26;;;;;;;9.07;6.30;;;;;;;;;;5024616;28;19917;-85
2022/06/29 11:35:53;;;;;;;9.35;6.32;;;;;;;;;;5024173;28;20558;-86
2022/06/29 11:38:18;;;;;;;10.40;6.53;;;;;;;;;;5024590;28;20034;-86
2022/06/29 11:40:50;;;;;;;9.57;6.80;;;;;;;;;;5024239;28;20037;-87
2022/06/29 11:43:18;;;;;;;62.70;54.13;;;;;;;;;;5024004;28;20045;-86
2022/06/29 11:45:46;;;;;;;10.95;9.20;;;;;;;;;;5023734;28;20072;-85
2022/06/29 11:48:16;;;;;;;8.32;6.78;;;;;;;;;;5023557;28;20038;-85
2022/06/29 11:50:52;;;;;;;9.98;6.45;;;;;;;;;;5024320;28;20042;-84
2022/06/29 11:53:43;;;;;;;6.95;5.90;;;;;;;;;;5022727;28;20129;-85
2022/06/29 11:56:27;;;;;;;8.05;6.80;;;;;;;;;;5020270;28;20044;-85
2022/06/29 11:58:56;;;;;;;8.85;6.45;;;;;;;;;;5020898;28;20045;-86
2022/06/29 12:01:26;;;;;;;8.18;5.82;;;;;;;;;;5022057;28;20046;-85
2022/06/29 12:03:56;;;;;;;10.73;6.70;;;;;;;;;;5022821;28;20510;-86
2022/06/29 12:06:25;;;;;;;11.10;6.45;;;;;;;;;;5021999;28;20034;-84
2022/06/29 12:08:54;;;;;;;8.50;5.95;;;;;;;;;;5024341;28;20034;-86
2022/06/29 12:11:22;;;;;;;8.38;6.00;;;;;;;;;;5024169;28;20034;-85
2022/06/29 12:13:48;;;;;;;12.40;6.78;;;;;;;;;;5023381;28;20045;-87
2022/06/29 12:16:14;;;;;;;8.55;6.28;;;;;;;;;;5023369;28;20041;-85
2022/06/29 12:18:39;;;;;;;9.65;6.65;;;;;;;;;;5023663;28;20088;-88
2022/06/29 12:21:05;;;;;;;7.15;5.80;;;;;;;;;;5021840;28;20030;-84
2022/06/29 12:23:31;;;;;;;8.82;6.60;;;;;;;;;;5022722;28;20037;-84
2022/06/29 12:25:58;;;;;;;8.73;6.20;;;;;;;;;;5021645;28;20117;-84
2022/06/29 12:28:23;;;;;;;8.48;6.35;;;;;;;;;;5023070;28;20034;-85
2022/06/29 12:30:50;;;;;;;9.35;6.05;;;;;;;;;;5022986;28;20122;-84
2022/06/29 12:33:15;;;;;;;7.25;6.55;;;;;;;;;;5023287;28;20032;-85
2022/06/29 12:35:41;;;;;;;8.02;6.07;;;;;;;;;;5020579;28;20482;-87
2022/06/29 12:38:08;;;;;;;8.32;6.72;;;;;;;;;;5023128;28;20076;-86
2022/06/29 12:40:34;;;;;;;9.05;6.32;;;;;;;;;;5021673;28;20454;-85
2022/06/29 12:43:00;;;;;;;9.45;6.45;;;;;;;;;;5023112;28;20040;-85
2022/06/29 12:45:26;;;;;;;9.10;5.95;;;;;;;;;;5022179;28;20042;-84
2022/06/29 12:47:52;;;;;;;9.45;5.78;;;;;;;;;;5021625;28;20036;-85
2022/06/29 12:50:17;;;;;;;10.82;6.70;;;;;;;;;;5021485;28;20041;-87
2022/06/29 12:52:46;;;;;;;8.77;6.97;;;;;;;;;;5024526;28;20052;-87
2022/06/29 12:55:15;;;;;;;10.52;7.00;;;;;;;;;;5021743;28;20034;-87
2022/06/29 12:57:42;;;;;;;10.27;6.97;;;;;;;;;;5021245;28;20041;-84
2022/06/29 13:00:09;;;;;;;9.18;6.75;;;;;;;;;;5021475;28;20523;-88
2022/06/29 13:02:34;;;;;;;12.93;7.32;;;;;;;;;;5022249;28;20162;-86
2022/06/29 13:05:00;;;;;;;11.00;6.43;;;;;;;;;;5022203;28;20453;-86
2022/06/29 13:07:29;;;;;;;9.68;6.90;;;;;;;;;;5021603;28;20038;-86
2022/06/29 13:09:58;;;;;;;10.18;7.28;;;;;;;;;;5021781;28;20033;-87
2022/06/29 13:12:24;;;;;;;13.85;7.45;;;;;;;;;;5018705;28;20030;-87
2022/06/29 13:14:50;;;;;;;9.90;7.22;;;;;;;;;;5018736;28;20038;-88
2022/06/29 13:17:16;;;;;;;12.13;7.75;;;;;;;;;;5018105;28;20084;-85
2022/06/29 13:19:42;;;;;;;10.85;7.20;;;;;;;;;;5017491;28;20034;-84
2022/06/29 13:22:09;;;;;;;9.95;6.55;;;;;;;;;;5017774;28;20045;-84
2022/06/29 13:24:34;;;;;;;8.60;6.60;;;;;;;;;;5019435;28;20037;-85
2022/06/29 13:27:00;;;;;;;7.70;6.15;;;;;;;;;;5018310;28;20040;-85
2022/06/29 13:29:26;;;;;;;10.02;6.43;;;;;;;;;;5018068;28;20042;-84
2022/06/29 13:31:53;;;;;;;9.93;6.70;;;;;;;;;;5021162;28;20048;-84
2022/06/29 13:34:19;;;;;;;9.15;6.93;;;;;;;;;;5018183;28;20496;-87
2022/06/29 13:36:44;;;;;;;11.25;6.97;;;;;;;;;;5018609;28;20076;-83
2022/06/29 13:39:10;;;;;;;9.60;7.00;;;;;;;;;;5019876;28;20034;-85
2022/06/29 13:41:35;;;;;;;11.65;5.93;;;;;;;;;;5019798;28;20064;-85
2022/06/29 13:44:01;;;;;;;7.65;5.60;;;;;;;;;;5018907;28;20049;-87
2022/06/29 13:46:26;;;;;;;10.25;6.07;;;;;;;;;;5020324;28;20038;-85
2022/06/29 13:48:52;;;;;;;9.75;5.85;;;;;;;;;;5021232;28;20040;-86
2022/06/29 13:51:18;;;;;;;9.50;6.13;;;;;;;;;;5020653;28;20047;-87
2022/06/29 13:53:44;;;;;;;8.32;6.25;;;;;;;;;;5021392;28;20046;-86
2022/06/29 13:56:09;;;;;;;8.48;6.75;;;;;;;;;;5022825;28;20049;-84
2022/06/29 13:58:35;;;;;;;10.27;6.68;;;;;;;;;;5021680;28;20056;-84
2022/06/29 14:01:00;;;;;;;7.72;6.25;;;;;;;;;;5022907;28;20030;-85
2022/06/29 14:03:26;;;;;;;8.57;6.60;;;;;;;;;;5020835;28;20064;-87
2022/06/29 14:05:51;;;;;;;10.73;6.43;;;;;;;;;;5020015;28;20611;-87
2022/06/29 14:08:17;;;;;;;6.93;5.53;;;;;;;;;;5019982;28;20045;-84
2022/06/29 14:10:43;;;;;;;9.15;6.10;;;;;;;;;;5019840;28;20041;-85
2022/06/29 14:13:09;;;;;;;9.65;5.18;;;;;;;;;;5020630;28;20038;-84
2022/06/29 14:15:35;;;;;;;7.68;5.40;;;;;;;;;;5021804;28;20093;-85
2022/06/29 14:18:00;;;;;;;9.60;6.13;;;;;;;;;;5023146;28;20042;-86
2022/06/29 14:20:26;;;;;;;10.48;6.75;;;;;;;;;;5021568;28;20037;-84
2022/06/29 14:22:52;;;;;;;8.15;5.40;;;;;;;;;;5020797;28;20025;-87
2022/06/29 14:25:17;;;;;;;7.55;3.88;;;;;;;;;;5021102;28;20077;-85
2022/06/29 14:27:43;;;;;;;6.13;4.00;;;;;;;;;;5021476;28;20084;-86
2022/06/29 14:30:10;;;;;;;5.30;4.05;;;;;;;;;;5021006;28;20099;-85
2022/06/29 14:32:37;;;;;;;7.30;4.57;;;;;;;;;;5022986;28;20037;-87
2022/06/29 14:35:03;;;;;;;6.50;4.32;;;;;;;;;;5019521;28;20058;-84
2022/06/29 14:37:29;;;;;;;9.93;3.97;;;;;;;;;;5023536;28;20034;-86
2022/06/29 14:39:54;;;;;;;5.30;3.80;;;;;;;;;;5021667;28;20112;-87
2022/06/29 14:42:21;;;;;;;8.82;4.18;;;;;;;;;;5020791;28;20038;-87
2022/06/29 14:44:47;;;;;;;5.00;3.30;;;;;;;;;;5022235;28;20034;-85
2022/06/29 14:47:12;;;;;;;6.15;3.78;;;;;;;;;;5022542;28;20038;-86
2022/06/29 14:49:38;;;;;;;6.68;4.00;;;;;;;;;;5020333;28;20034;-86
2022/06/29 14:52:04;;;;;;;6.00;4.05;;;;;;;;;;5022887;28;20034;-85
2022/06/29 14:54:29;;;;;;;6.28;3.80;;;;;;;;;;5020987;28;20042;-85
2022/06/29 14:56:55;;;;;;;7.65;3.75;;;;;;;;;;5019902;28;20038;-88
2022/06/29 14:59:20;;;;;;;4.97;3.75;;;;;;;;;;5018385;28;20419;-84
2022/06/29 15:01:46;;;;;;;6.57;3.63;;;;;;;;;;5018481;28;20033;-85
2022/06/29 15:04:11;;;;;;;5.75;3.38;;;;;;;;;;5019136;28;20038;-86
2022/06/29 15:06:37;;;;;;;6.55;3.40;;;;;;;;;;5018699;28;20049;-86
2022/06/29 15:09:03;;;;;;;5.00;3.20;;;;;;;;;;5018856;28;20033;-88
2022/06/29 15:11:29;;;;;;;5.70;3.45;;;;;;;;;;5019528;28;20671;-86
2022/06/29 15:13:55;;;;;;;6.78;3.38;;;;;;;;;;5018975;28;20542;-86
2022/06/29 15:16:21;;;;;;;5.22;3.60;;;;;;;;;;5020305;28;20085;-85
2022/06/29 15:18:46;;;;;;;7.00;3.42;;;;;;;;;;5019678;28;20034;-85
2022/06/29 15:21:13;;;;;;;6.47;3.40;;;;;;;;;;5020234;28;20441;-86
2022/06/29 15:23:38;;;;;;;6.28;3.67;;;;;;;;;;5003437;28;20085;-85
2022/06/29 15:26:04;;;;;;;6.72;3.47;;;;;;;;;;5020033;28;20502;-85
2022/06/29 15:28:29;;;;;;;7.85;3.50;;;;;;;;;;5021518;28;20064;-88
2022/06/29 15:30:55;;;;;;;5.85;3.97;;;;;;;;;;5020468;28;20030;-86
2022/06/29 15:38:50;;;;;;;5.28;3.35;;;;;;;;;;5019739;28;20502;-88
2022/06/29 15:41:16;;;;;;;8.52;3.00;;;;;;;;;;5020010;28;20101;-87
2022/06/29 15:43:41;;;;;;;3.97;3.03;;;;;;;;;;5020329;28;20069;-87
2022/06/29 15:46:08;;;;;;;6.25;3.10;;;;;;;;;;5020567;28;20076;-86
2022/06/29 15:48:34;;;;;;;6.07;3.30;;;;;;;;;;5024430;28;20041;-86
2022/06/29 15:50:59;;;;;;;5.38;2.90;;;;;;;;;;5024879;28;20034;-87
2022/06/29 15:56:09;;;;;;;7.22;3.13;;;;;;;;;;5017394;28;20128;-87
2022/06/29 15:58:34;;;;;;;5.43;3.10;;;;;;;;;;5017971;28;20038;-86
2022/06/29 16:01:00;;;;;;;7.78;3.50;;;;;;;;;;5016416;28;20109;-86
2022/06/29 16:03:25;;;;;;;5.38;3.03;;;;;;;;;;5016142;28;20037;-84
2022/06/29 16:05:51;;;;;;;5.10;3.30;;;;;;;;;;5015944;28;20557;-84
2022/06/29 16:08:16;;;;;;;5.75;3.05;;;;;;;;;;5016185;28;20033;-84
2022/06/29 16:10:42;;;;;;;5.90;3.20;;;;;;;;;;5017495;28;20038;-83
2022/06/29 16:13:10;;;;;;;5.00;3.00;;;;;;;;;;5020196;28;20030;-84
2022/06/29 16:15:35;;;;;;;8.13;2.83;;;;;;;;;;5018004;28;20037;-85
2022/06/29 16:18:01;;;;;;;5.38;3.33;;;;;;;;;;5019226;28;20037;-86
2022/06/29 16:20:27;;;;;;;6.18;3.13;;;;;;;;;;5018684;28;20097;-87
2022/06/29 16:22:52;;;;;;;6.85;3.33;;;;;;;;;;5021374;28;20429;-84
2022/06/29 16:25:18;;;;;;;4.13;2.90;;;;;;;;;;5019425;28;20417;-84
2022/06/29 16:27:43;;;;;;;6.03;3.03;;;;;;;;;;5030521;28;20026;-84
2022/06/29 16:30:10;;;;;;;4.63;3.00;;;;;;;;;;5025455;28;20055;-84
2022/06/29 16:32:35;;;;;;;4.65;2.72;;;;;;;;;;5026004;28;20117;-84
2022/06/29 16:35:01;;;;;;;6.28;3.17;;;;;;;;;;5023903;28;20112;-86
2022/06/29 16:37:27;;;;;;;4.38;2.70;;;;;;;;;;5023774;28;20084;-84
2022/06/29 16:39:52;;;;;;;4.88;2.45;;;;;;;;;;5022114;28;20057;-84
2022/06/29 16:42:18;;;;;;;6.32;2.70;;;;;;;;;;5023557;28;20470;-84
2022/06/29 16:44:43;;;;;;;4.95;2.83;;;;;;;;;;5021759;28;20043;-84